sensor_id;sensor_type;location;lat;lon;timestamp;P1;durP1;ratioP1;P2;durP2;ratioP2
7045;SDS011;3564;53.326;10.356;2024-03-07T00:00:21;28.90;;;17.97;;
7045;SDS011;3564;53.326;10.356;2024-03-07T00:02:48;29.20;;;17.60;;
7045;SDS011;3564;53.326;10.356;2024-03-07T00:05:15;30.57;;;19.73;;
7045;SDS011;3564;53.326;10.356;2024-03-07T00:07:41;27.00;;;18.07;;
7045;SDS011;3564;53.326;10.356;2024-03-07T00:10:08;28.57;;;18.30;;
7045;SDS011;3564;53.326;10.356;2024-03-07T00:12:38;29.67;;;18.37;;
7045;SDS011;3564;53.326;10.356;2024-03-07T00:15:08;24.30;;;17.30;;
7045;SDS011;3564;53.326;10.356;2024-03-07T00:17:35;27.27;;;17.83;;
7045;SDS011;3564;53.326;10.356;2024-03-07T00:20:02;27.97;;;17.27;;
7045;SDS011;3564;53.326;10.356;2024-03-07T00:22:29;26.63;;;16.27;;
7045;SDS011;3564;53.326;10.356;2024-03-07T00:24:56;23.23;;;15.17;;
7045;SDS011;3564;53.326;10.356;2024-03-07T00:27:22;23.77;;;15.53;;
7045;SDS011;3564;53.326;10.356;2024-03-07T00:29:48;23.87;;;15.43;;
7045;SDS011;3564;53.326;10.356;2024-03-07T00:32:21;26.00;;;17.67;;
7045;SDS011;3564;53.326;10.356;2024-03-07T00:34:47;25.53;;;15.77;;
7045;SDS011;3564;53.326;10.356;2024-03-07T00:37:13;26.40;;;16.27;;
7045;SDS011;3564;53.326;10.356;2024-03-07T00:39:40;25.83;;;16.47;;
7045;SDS011;3564;53.326;10.356;2024-03-07T00:42:07;28.30;;;17.40;;
7045;SDS011;3564;53.326;10.356;2024-03-07T00:44:33;26.73;;;17.50;;
7045;SDS011;3564;53.326;10.356;2024-03-07T00:47:02;26.60;;;17.30;;
7045;SDS011;3564;53.326;10.356;2024-03-07T00:49:27;26.90;;;17.07;;
7045;SDS011;3564;53.326;10.356;2024-03-07T00:51:53;28.73;;;15.80;;
7045;SDS011;3564;53.326;10.356;2024-03-07T00:54:20;21.47;;;15.50;;
7045;SDS011;3564;53.326;10.356;2024-03-07T00:56:46;25.70;;;16.97;;
7045;SDS011;3564;53.326;10.356;2024-03-07T00:59:14;24.37;;;15.43;;
7045;SDS011;3564;53.326;10.356;2024-03-07T01:01:41;22.53;;;15.43;;
7045;SDS011;3564;53.326;10.356;2024-03-07T01:04:07;26.87;;;16.40;;
7045;SDS011;3564;53.326;10.356;2024-03-07T01:06:33;25.13;;;15.60;;
7045;SDS011;3564;53.326;10.356;2024-03-07T01:08:59;23.97;;;16.53;;
7045;SDS011;3564;53.326;10.356;2024-03-07T01:11:25;28.07;;;16.37;;
7045;SDS011;3564;53.326;10.356;2024-03-07T01:13:50;28.50;;;16.97;;
7045;SDS011;3564;53.326;10.356;2024-03-07T01:16:17;26.63;;;17.03;;
7045;SDS011;3564;53.326;10.356;2024-03-07T01:18:42;29.30;;;18.37;;
7045;SDS011;3564;53.326;10.356;2024-03-07T01:21:08;31.03;;;17.97;;
7045;SDS011;3564;53.326;10.356;2024-03-07T01:23:33;27.23;;;17.00;;
7045;SDS011;3564;53.326;10.356;2024-03-07T01:25:59;23.77;;;16.00;;
7045;SDS011;3564;53.326;10.356;2024-03-07T01:28:25;28.00;;;17.03;;
7045;SDS011;3564;53.326;10.356;2024-03-07T01:30:54;25.73;;;17.60;;
7045;SDS011;3564;53.326;10.356;2024-03-07T01:33:21;24.37;;;15.93;;
7045;SDS011;3564;53.326;10.356;2024-03-07T01:35:47;29.37;;;17.63;;
7045;SDS011;3564;53.326;10.356;2024-03-07T01:38:13;26.77;;;16.67;;
7045;SDS011;3564;53.326;10.356;2024-03-07T01:40:40;26.80;;;17.13;;
7045;SDS011;3564;53.326;10.356;2024-03-07T01:43:06;27.80;;;16.27;;
7045;SDS011;3564;53.326;10.356;2024-03-07T01:45:33;24.93;;;16.17;;
7045;SDS011;3564;53.326;10.356;2024-03-07T01:48:02;24.27;;;15.67;;
7045;SDS011;3564;53.326;10.356;2024-03-07T01:50:29;27.80;;;16.97;;
7045;SDS011;3564;53.326;10.356;2024-03-07T01:52:55;24.73;;;16.07;;
7045;SDS011;3564;53.326;10.356;2024-03-07T01:55:22;25.00;;;15.90;;
7045;SDS011;3564;53.326;10.356;2024-03-07T01:57:48;25.27;;;16.23;;
7045;SDS011;3564;53.326;10.356;2024-03-07T02:00:14;28.13;;;16.93;;
7045;SDS011;3564;53.326;10.356;2024-03-07T02:02:40;24.73;;;15.27;;
7045;SDS011;3564;53.326;10.356;2024-03-07T02:05:07;26.13;;;16.57;;
7045;SDS011;3564;53.326;10.356;2024-03-07T02:07:33;25.33;;;16.07;;
7045;SDS011;3564;53.326;10.356;2024-03-07T02:10:02;28.23;;;16.63;;
7045;SDS011;3564;53.326;10.356;2024-03-07T02:12:31;25.20;;;16.13;;
7045;SDS011;3564;53.326;10.356;2024-03-07T02:14:58;24.80;;;15.33;;
7045;SDS011;3564;53.326;10.356;2024-03-07T02:17:24;22.00;;;16.13;;
7045;SDS011;3564;53.326;10.356;2024-03-07T02:19:50;25.37;;;17.03;;
7045;SDS011;3564;53.326;10.356;2024-03-07T02:22:16;26.07;;;15.87;;
7045;SDS011;3564;53.326;10.356;2024-03-07T02:24:42;26.70;;;16.43;;
7045;SDS011;3564;53.326;10.356;2024-03-07T02:27:08;24.87;;;16.40;;
7045;SDS011;3564;53.326;10.356;2024-03-07T02:29:34;23.57;;;15.33;;
7045;SDS011;3564;53.326;10.356;2024-03-07T02:32:01;24.63;;;16.03;;
7045;SDS011;3564;53.326;10.356;2024-03-07T02:34:27;27.07;;;15.40;;
7045;SDS011;3564;53.326;10.356;2024-03-07T02:36:54;26.70;;;16.27;;
7045;SDS011;3564;53.326;10.356;2024-03-07T02:39:19;25.13;;;15.83;;
7045;SDS011;3564;53.326;10.356;2024-03-07T02:41:46;28.60;;;15.93;;
7045;SDS011;3564;53.326;10.356;2024-03-07T02:44:15;33.70;;;17.17;;
7045;SDS011;3564;53.326;10.356;2024-03-07T02:46:40;29.07;;;16.43;;
7045;SDS011;3564;53.326;10.356;2024-03-07T02:49:06;28.63;;;16.63;;
7045;SDS011;3564;53.326;10.356;2024-03-07T02:51:31;29.87;;;16.27;;
7045;SDS011;3564;53.326;10.356;2024-03-07T02:53:57;33.07;;;16.93;;
7045;SDS011;3564;53.326;10.356;2024-03-07T02:56:23;30.57;;;16.40;;
7045;SDS011;3564;53.326;10.356;2024-03-07T02:58:50;31.00;;;17.20;;
7045;SDS011;3564;53.326;10.356;2024-03-07T03:01:16;32.80;;;16.30;;
7045;SDS011;3564;53.326;10.356;2024-03-07T03:03:42;32.77;;;17.20;;
7045;SDS011;3564;53.326;10.356;2024-03-07T03:06:09;30.93;;;16.50;;
7045;SDS011;3564;53.326;10.356;2024-03-07T03:08:35;32.73;;;16.93;;
7045;SDS011;3564;53.326;10.356;2024-03-07T03:11:01;30.93;;;16.70;;
7045;SDS011;3564;53.326;10.356;2024-03-07T03:13:26;33.93;;;17.77;;
7045;SDS011;3564;53.326;10.356;2024-03-07T03:15:53;37.03;;;17.77;;
7045;SDS011;3564;53.326;10.356;2024-03-07T03:18:22;33.53;;;17.33;;
7045;SDS011;3564;53.326;10.356;2024-03-07T03:20:51;32.87;;;17.37;;
7045;SDS011;3564;53.326;10.356;2024-03-07T03:23:17;29.83;;;15.90;;
7045;SDS011;3564;53.326;10.356;2024-03-07T03:25:43;27.37;;;15.27;;
7045;SDS011;3564;53.326;10.356;2024-03-07T03:28:10;27.57;;;14.67;;
7045;SDS011;3564;53.326;10.356;2024-03-07T03:30:38;31.13;;;14.87;;
7045;SDS011;3564;53.326;10.356;2024-03-07T03:33:05;22.70;;;13.33;;
7045;SDS011;3564;53.326;10.356;2024-03-07T03:35:32;23.53;;;13.13;;
7045;SDS011;3564;53.326;10.356;2024-03-07T03:38:02;17.97;;;11.73;;
7045;SDS011;3564;53.326;10.356;2024-03-07T03:40:27;21.67;;;12.53;;
7045;SDS011;3564;53.326;10.356;2024-03-07T03:42:53;20.47;;;11.43;;
7045;SDS011;3564;53.326;10.356;2024-03-07T03:45:19;21.97;;;13.07;;
7045;SDS011;3564;53.326;10.356;2024-03-07T03:47:47;19.27;;;11.93;;
7045;SDS011;3564;53.326;10.356;2024-03-07T03:50:13;22.80;;;12.47;;
7045;SDS011;3564;53.326;10.356;2024-03-07T03:52:39;19.60;;;11.87;;
7045;SDS011;3564;53.326;10.356;2024-03-07T03:55:06;20.23;;;12.77;;
7045;SDS011;3564;53.326;10.356;2024-03-07T03:57:40;20.17;;;12.00;;
7045;SDS011;3564;53.326;10.356;2024-03-07T04:00:12;22.67;;;13.00;;
7045;SDS011;3564;53.326;10.356;2024-03-07T04:02:38;20.27;;;12.67;;
7045;SDS011;3564;53.326;10.356;2024-03-07T04:05:04;19.63;;;11.90;;
7045;SDS011;3564;53.326;10.356;2024-03-07T04:07:30;18.40;;;11.70;;
7045;SDS011;3564;53.326;10.356;2024-03-07T04:10:00;19.10;;;12.10;;
7045;SDS011;3564;53.326;10.356;2024-03-07T04:12:28;19.37;;;11.77;;
7045;SDS011;3564;53.326;10.356;2024-03-07T04:14:54;18.73;;;12.37;;
7045;SDS011;3564;53.326;10.356;2024-03-07T04:17:22;18.33;;;11.40;;
7045;SDS011;3564;53.326;10.356;2024-03-07T04:19:48;23.60;;;12.53;;
7045;SDS011;3564;53.326;10.356;2024-03-07T04:22:13;19.47;;;11.73;;
7045;SDS011;3564;53.326;10.356;2024-03-07T04:24:39;21.87;;;12.50;;
7045;SDS011;3564;53.326;10.356;2024-03-07T04:27:06;18.67;;;11.93;;
7045;SDS011;3564;53.326;10.356;2024-03-07T04:29:35;21.20;;;11.73;;
7045;SDS011;3564;53.326;10.356;2024-03-07T04:32:01;21.60;;;11.97;;
7045;SDS011;3564;53.326;10.356;2024-03-07T04:34:28;16.23;;;11.23;;
7045;SDS011;3564;53.326;10.356;2024-03-07T04:36:58;20.20;;;11.47;;
7045;SDS011;3564;53.326;10.356;2024-03-07T04:39:27;19.47;;;11.67;;
7045;SDS011;3564;53.326;10.356;2024-03-07T04:41:57;16.00;;;11.57;;
7045;SDS011;3564;53.326;10.356;2024-03-07T04:44:31;18.80;;;11.23;;
7045;SDS011;3564;53.326;10.356;2024-03-07T04:46:58;19.80;;;11.30;;
7045;SDS011;3564;53.326;10.356;2024-03-07T04:49:26;18.80;;;11.03;;
7045;SDS011;3564;53.326;10.356;2024-03-07T04:51:53;15.43;;;9.73;;
7045;SDS011;3564;53.326;10.356;2024-03-07T04:54:20;15.80;;;10.20;;
7045;SDS011;3564;53.326;10.356;2024-03-07T04:56:46;15.87;;;9.60;;
7045;SDS011;3564;53.326;10.356;2024-03-07T04:59:13;16.97;;;10.70;;
7045;SDS011;3564;53.326;10.356;2024-03-07T05:01:40;14.27;;;9.70;;
7045;SDS011;3564;53.326;10.356;2024-03-07T05:04:06;15.13;;;9.60;;
7045;SDS011;3564;53.326;10.356;2024-03-07T05:06:33;14.00;;;10.00;;
7045;SDS011;3564;53.326;10.356;2024-03-07T05:09:03;19.47;;;10.03;;
7045;SDS011;3564;53.326;10.356;2024-03-07T05:11:30;18.03;;;9.97;;
7045;SDS011;3564;53.326;10.356;2024-03-07T05:13:56;14.07;;;10.10;;
7045;SDS011;3564;53.326;10.356;2024-03-07T05:16:26;13.50;;;9.83;;
7045;SDS011;3564;53.326;10.356;2024-03-07T05:18:53;14.37;;;9.93;;
7045;SDS011;3564;53.326;10.356;2024-03-07T05:21:20;17.00;;;10.37;;
7045;SDS011;3564;53.326;10.356;2024-03-07T05:24:15;12.40;;;9.13;;
7045;SDS011;3564;53.326;10.356;2024-03-07T05:26:40;17.17;;;10.43;;
7045;SDS011;3564;53.326;10.356;2024-03-07T05:29:07;11.77;;;8.97;;
7045;SDS011;3564;53.326;10.356;2024-03-07T05:31:34;11.53;;;8.43;;
7045;SDS011;3564;53.326;10.356;2024-03-07T05:34:04;14.60;;;9.20;;
7045;SDS011;3564;53.326;10.356;2024-03-07T05:36:33;14.50;;;8.20;;
7045;SDS011;3564;53.326;10.356;2024-03-07T05:39:00;14.33;;;8.90;;
7045;SDS011;3564;53.326;10.356;2024-03-07T05:41:27;16.53;;;9.53;;
7045;SDS011;3564;53.326;10.356;2024-03-07T05:43:54;11.43;;;8.73;;
7045;SDS011;3564;53.326;10.356;2024-03-07T05:46:22;21.07;;;8.80;;
7045;SDS011;3564;53.326;10.356;2024-03-07T05:48:48;12.37;;;8.53;;
7045;SDS011;3564;53.326;10.356;2024-03-07T05:51:17;14.97;;;9.20;;
7045;SDS011;3564;53.326;10.356;2024-03-07T05:53:43;14.80;;;9.57;;
7045;SDS011;3564;53.326;10.356;2024-03-07T05:56:08;15.10;;;9.37;;
7045;SDS011;3564;53.326;10.356;2024-03-07T05:58:34;17.27;;;8.87;;
7045;SDS011;3564;53.326;10.356;2024-03-07T06:01:00;13.30;;;8.77;;
7045;SDS011;3564;53.326;10.356;2024-03-07T06:03:26;14.07;;;8.77;;
7045;SDS011;3564;53.326;10.356;2024-03-07T06:05:52;12.90;;;8.97;;
7045;SDS011;3564;53.326;10.356;2024-03-07T06:08:18;19.70;;;9.00;;
7045;SDS011;3564;53.326;10.356;2024-03-07T06:10:45;15.67;;;9.90;;
7045;SDS011;3564;53.326;10.356;2024-03-07T06:13:11;12.40;;;8.37;;
7045;SDS011;3564;53.326;10.356;2024-03-07T06:15:38;15.30;;;8.40;;
7045;SDS011;3564;53.326;10.356;2024-03-07T06:18:06;12.57;;;9.47;;
7045;SDS011;3564;53.326;10.356;2024-03-07T06:20:35;13.00;;;8.87;;
7045;SDS011;3564;53.326;10.356;2024-03-07T06:23:02;12.63;;;9.13;;
7045;SDS011;3564;53.326;10.356;2024-03-07T06:25:31;13.57;;;9.27;;
7045;SDS011;3564;53.326;10.356;2024-03-07T06:28:11;12.07;;;9.00;;
7045;SDS011;3564;53.326;10.356;2024-03-07T06:30:40;16.80;;;9.53;;
7045;SDS011;3564;53.326;10.356;2024-03-07T06:33:11;14.67;;;9.23;;
7045;SDS011;3564;53.326;10.356;2024-03-07T06:35:38;12.93;;;8.33;;
7045;SDS011;3564;53.326;10.356;2024-03-07T06:38:10;15.23;;;9.27;;
7045;SDS011;3564;53.326;10.356;2024-03-07T06:40:37;14.87;;;9.43;;
7045;SDS011;3564;53.326;10.356;2024-03-07T06:43:05;12.63;;;8.40;;
7045;SDS011;3564;53.326;10.356;2024-03-07T06:45:37;14.43;;;8.47;;
7045;SDS011;3564;53.326;10.356;2024-03-07T06:48:07;13.87;;;9.00;;
7045;SDS011;3564;53.326;10.356;2024-03-07T06:50:33;13.97;;;8.47;;
7045;SDS011;3564;53.326;10.356;2024-03-07T06:53:00;14.40;;;8.73;;
7045;SDS011;3564;53.326;10.356;2024-03-07T06:55:26;16.20;;;8.47;;
7045;SDS011;3564;53.326;10.356;2024-03-07T06:57:52;15.33;;;9.03;;
7045;SDS011;3564;53.326;10.356;2024-03-07T07:00:38;14.30;;;8.83;;
7045;SDS011;3564;53.326;10.356;2024-03-07T07:03:08;15.33;;;8.20;;
7045;SDS011;3564;53.326;10.356;2024-03-07T07:05:35;14.27;;;9.30;;
7045;SDS011;3564;53.326;10.356;2024-03-07T07:08:00;10.87;;;8.53;;
7045;SDS011;3564;53.326;10.356;2024-03-07T07:10:26;12.83;;;8.90;;
7045;SDS011;3564;53.326;10.356;2024-03-07T07:12:51;13.50;;;8.60;;
7045;SDS011;3564;53.326;10.356;2024-03-07T07:15:19;13.97;;;8.60;;
7045;SDS011;3564;53.326;10.356;2024-03-07T07:17:46;15.43;;;9.50;;
7045;SDS011;3564;53.326;10.356;2024-03-07T07:20:14;11.07;;;8.17;;
7045;SDS011;3564;53.326;10.356;2024-03-07T07:22:41;14.73;;;9.17;;
7045;SDS011;3564;53.326;10.356;2024-03-07T07:25:09;11.30;;;8.70;;
7045;SDS011;3564;53.326;10.356;2024-03-07T07:27:45;10.20;;;8.07;;
7045;SDS011;3564;53.326;10.356;2024-03-07T07:30:12;12.97;;;8.80;;
7045;SDS011;3564;53.326;10.356;2024-03-07T07:32:40;12.70;;;8.90;;
7045;SDS011;3564;53.326;10.356;2024-03-07T07:35:07;13.43;;;8.70;;
7045;SDS011;3564;53.326;10.356;2024-03-07T07:37:39;12.30;;;8.57;;
7045;SDS011;3564;53.326;10.356;2024-03-07T07:40:25;10.93;;;8.40;;
7045;SDS011;3564;53.326;10.356;2024-03-07T07:42:52;13.83;;;9.10;;
7045;SDS011;3564;53.326;10.356;2024-03-07T07:45:19;11.87;;;8.53;;
7045;SDS011;3564;53.326;10.356;2024-03-07T07:47:50;10.20;;;7.93;;
7045;SDS011;3564;53.326;10.356;2024-03-07T07:50:20;14.03;;;8.47;;
7045;SDS011;3564;53.326;10.356;2024-03-07T07:52:53;11.30;;;7.57;;
7045;SDS011;3564;53.326;10.356;2024-03-07T07:55:20;14.87;;;8.43;;
7045;SDS011;3564;53.326;10.356;2024-03-07T07:57:48;11.50;;;8.40;;
7045;SDS011;3564;53.326;10.356;2024-03-07T08:00:17;12.30;;;7.93;;
7045;SDS011;3564;53.326;10.356;2024-03-07T08:02:53;12.93;;;8.33;;
7045;SDS011;3564;53.326;10.356;2024-03-07T08:05:36;12.53;;;8.10;;
7045;SDS011;3564;53.326;10.356;2024-03-07T08:08:03;13.00;;;9.10;;
7045;SDS011;3564;53.326;10.356;2024-03-07T08:10:31;12.30;;;8.33;;
7045;SDS011;3564;53.326;10.356;2024-03-07T08:12:58;11.93;;;7.77;;
7045;SDS011;3564;53.326;10.356;2024-03-07T08:15:28;11.50;;;7.87;;
7045;SDS011;3564;53.326;10.356;2024-03-07T08:17:54;11.57;;;8.10;;
7045;SDS011;3564;53.326;10.356;2024-03-07T08:20:20;12.33;;;8.40;;
7045;SDS011;3564;53.326;10.356;2024-03-07T08:22:47;11.97;;;7.93;;
7045;SDS011;3564;53.326;10.356;2024-03-07T08:25:16;11.63;;;9.13;;
7045;SDS011;3564;53.326;10.356;2024-03-07T08:27:44;14.17;;;8.63;;
7045;SDS011;3564;53.326;10.356;2024-03-07T08:30:13;13.77;;;8.47;;
7045;SDS011;3564;53.326;10.356;2024-03-07T08:32:39;11.97;;;8.23;;
7045;SDS011;3564;53.326;10.356;2024-03-07T08:35:06;10.17;;;8.10;;
7045;SDS011;3564;53.326;10.356;2024-03-07T08:37:37;13.93;;;8.03;;
7045;SDS011;3564;53.326;10.356;2024-03-07T08:40:04;12.60;;;8.90;;
7045;SDS011;3564;53.326;10.356;2024-03-07T08:42:35;10.73;;;8.37;;
7045;SDS011;3564;53.326;10.356;2024-03-07T08:45:19;11.03;;;7.87;;
7045;SDS011;3564;53.326;10.356;2024-03-07T08:47:49;17.30;;;8.60;;
7045;SDS011;3564;53.326;10.356;2024-03-07T08:50:16;13.57;;;9.03;;
7045;SDS011;3564;53.326;10.356;2024-03-07T08:52:43;13.77;;;9.13;;
7045;SDS011;3564;53.326;10.356;2024-03-07T08:55:11;12.20;;;7.87;;
7045;SDS011;3564;53.326;10.356;2024-03-07T08:57:40;11.97;;;9.13;;
7045;SDS011;3564;53.326;10.356;2024-03-07T09:00:07;13.70;;;8.97;;
7045;SDS011;3564;53.326;10.356;2024-03-07T09:02:38;11.93;;;7.90;;
7045;SDS011;3564;53.326;10.356;2024-03-07T09:05:04;14.87;;;8.50;;
7045;SDS011;3564;53.326;10.356;2024-03-07T09:07:35;13.00;;;8.50;;
7045;SDS011;3564;53.326;10.356;2024-03-07T09:10:00;14.00;;;9.97;;
7045;SDS011;3564;53.326;10.356;2024-03-07T09:12:26;12.97;;;8.93;;
7045;SDS011;3564;53.326;10.356;2024-03-07T09:14:54;13.03;;;9.17;;
7045;SDS011;3564;53.326;10.356;2024-03-07T09:17:23;14.17;;;9.80;;
7045;SDS011;3564;53.326;10.356;2024-03-07T09:19:48;13.27;;;8.73;;
7045;SDS011;3564;53.326;10.356;2024-03-07T09:22:14;15.43;;;9.73;;
7045;SDS011;3564;53.326;10.356;2024-03-07T09:24:40;12.00;;;9.33;;
7045;SDS011;3564;53.326;10.356;2024-03-07T09:27:06;14.47;;;9.20;;
7045;SDS011;3564;53.326;10.356;2024-03-07T09:29:33;15.70;;;9.20;;
7045;SDS011;3564;53.326;10.356;2024-03-07T09:31:59;17.03;;;10.30;;
7045;SDS011;3564;53.326;10.356;2024-03-07T09:34:25;13.07;;;9.57;;
7045;SDS011;3564;53.326;10.356;2024-03-07T09:36:51;13.80;;;10.00;;
7045;SDS011;3564;53.326;10.356;2024-03-07T09:39:17;14.27;;;9.50;;
7045;SDS011;3564;53.326;10.356;2024-03-07T09:41:43;15.93;;;9.77;;
7045;SDS011;3564;53.326;10.356;2024-03-07T09:44:09;23.83;;;11.07;;
7045;SDS011;3564;53.326;10.356;2024-03-07T09:46:39;14.13;;;9.87;;
7045;SDS011;3564;53.326;10.356;2024-03-07T09:49:06;15.17;;;10.90;;
7045;SDS011;3564;53.326;10.356;2024-03-07T09:51:35;20.53;;;10.83;;
7045;SDS011;3564;53.326;10.356;2024-03-07T09:54:03;18.13;;;11.57;;
7045;SDS011;3564;53.326;10.356;2024-03-07T09:56:28;18.70;;;10.97;;
7045;SDS011;3564;53.326;10.356;2024-03-07T09:58:58;18.43;;;11.00;;
7045;SDS011;3564;53.326;10.356;2024-03-07T10:01:26;16.60;;;10.93;;
7045;SDS011;3564;53.326;10.356;2024-03-07T10:03:57;17.57;;;10.80;;
7045;SDS011;3564;53.326;10.356;2024-03-07T10:06:26;13.77;;;9.77;;
7045;SDS011;3564;53.326;10.356;2024-03-07T10:08:54;15.63;;;9.80;;
7045;SDS011;3564;53.326;10.356;2024-03-07T10:11:20;14.60;;;10.23;;
7045;SDS011;3564;53.326;10.356;2024-03-07T10:13:46;16.30;;;10.43;;
7045;SDS011;3564;53.326;10.356;2024-03-07T10:16:15;14.40;;;10.20;;
7045;SDS011;3564;53.326;10.356;2024-03-07T10:18:43;14.77;;;10.83;;
7045;SDS011;3564;53.326;10.356;2024-03-07T10:21:12;16.10;;;10.30;;
7045;SDS011;3564;53.326;10.356;2024-03-07T10:23:38;14.10;;;9.73;;
7045;SDS011;3564;53.326;10.356;2024-03-07T10:26:10;14.93;;;10.63;;
7045;SDS011;3564;53.326;10.356;2024-03-07T10:28:37;17.47;;;11.23;;
7045;SDS011;3564;53.326;10.356;2024-03-07T10:31:03;16.53;;;10.93;;
7045;SDS011;3564;53.326;10.356;2024-03-07T10:33:34;16.37;;;10.77;;
7045;SDS011;3564;53.326;10.356;2024-03-07T10:36:00;16.13;;;11.00;;
7045;SDS011;3564;53.326;10.356;2024-03-07T10:38:26;17.33;;;10.57;;
7045;SDS011;3564;53.326;10.356;2024-03-07T10:40:54;16.03;;;11.00;;
7045;SDS011;3564;53.326;10.356;2024-03-07T10:43:20;17.30;;;11.67;;
7045;SDS011;3564;53.326;10.356;2024-03-07T10:45:47;16.10;;;10.87;;
7045;SDS011;3564;53.326;10.356;2024-03-07T10:48:18;15.70;;;11.77;;
7045;SDS011;3564;53.326;10.356;2024-03-07T10:53:27;20.33;;;11.37;;
7045;SDS011;3564;53.326;10.356;2024-03-07T11:01:39;17.00;;;11.87;;
7045;SDS011;3564;53.326;10.356;2024-03-07T11:04:14;17.40;;;11.50;;
7045;SDS011;3564;53.326;10.356;2024-03-07T11:06:41;18.83;;;11.47;;
7045;SDS011;3564;53.326;10.356;2024-03-07T11:09:07;18.67;;;12.23;;
7045;SDS011;3564;53.326;10.356;2024-03-07T11:11:37;17.80;;;11.47;;
7045;SDS011;3564;53.326;10.356;2024-03-07T11:14:05;17.63;;;11.67;;
7045;SDS011;3564;53.326;10.356;2024-03-07T11:16:35;16.70;;;11.63;;
7045;SDS011;3564;53.326;10.356;2024-03-07T11:21:51;20.30;;;12.27;;
7045;SDS011;3564;53.326;10.356;2024-03-07T11:24:26;18.00;;;12.23;;
7045;SDS011;3564;53.326;10.356;2024-03-07T11:26:56;23.50;;;13.43;;
7045;SDS011;3564;53.326;10.356;2024-03-07T11:32:08;20.83;;;12.93;;
7045;SDS011;3564;53.326;10.356;2024-03-07T11:34:43;18.80;;;13.00;;
7045;SDS011;3564;53.326;10.356;2024-03-07T11:37:42;20.97;;;13.20;;
7045;SDS011;3564;53.326;10.356;2024-03-07T11:42:54;19.47;;;11.97;;
7045;SDS011;3564;53.326;10.356;2024-03-07T11:45:25;20.00;;;13.03;;
7045;SDS011;3564;53.326;10.356;2024-03-07T11:47:52;20.10;;;12.57;;
7045;SDS011;3564;53.326;10.356;2024-03-07T11:50:43;19.70;;;11.87;;
7045;SDS011;3564;53.326;10.356;2024-03-07T11:53:09;18.83;;;12.40;;
7045;SDS011;3564;53.326;10.356;2024-03-07T11:55:35;18.97;;;12.27;;
7045;SDS011;3564;53.326;10.356;2024-03-07T11:58:19;19.83;;;12.60;;
7045;SDS011;3564;53.326;10.356;2024-03-07T12:00:46;20.23;;;12.83;;
7045;SDS011;3564;53.326;10.356;2024-03-07T12:03:14;19.07;;;12.43;;
7045;SDS011;3564;53.326;10.356;2024-03-07T12:05:42;16.33;;;11.70;;
7045;SDS011;3564;53.326;10.356;2024-03-07T12:08:10;19.93;;;13.30;;
7045;SDS011;3564;53.326;10.356;2024-03-07T12:10:37;17.23;;;12.27;;
7045;SDS011;3564;53.326;10.356;2024-03-07T12:13:08;22.30;;;13.27;;
7045;SDS011;3564;53.326;10.356;2024-03-07T12:15:36;18.17;;;12.83;;
7045;SDS011;3564;53.326;10.356;2024-03-07T12:18:04;19.87;;;12.10;;
7045;SDS011;3564;53.326;10.356;2024-03-07T12:20:35;19.03;;;12.03;;
7045;SDS011;3564;53.326;10.356;2024-03-07T12:23:02;18.93;;;12.87;;
7045;SDS011;3564;53.326;10.356;2024-03-07T12:25:30;20.23;;;12.40;;
7045;SDS011;3564;53.326;10.356;2024-03-07T12:28:04;19.00;;;12.40;;
7045;SDS011;3564;53.326;10.356;2024-03-07T12:30:34;21.73;;;13.00;;
7045;SDS011;3564;53.326;10.356;2024-03-07T12:33:03;17.17;;;12.43;;
7045;SDS011;3564;53.326;10.356;2024-03-07T12:35:29;22.20;;;12.90;;
7045;SDS011;3564;53.326;10.356;2024-03-07T12:37:57;19.83;;;12.13;;
7045;SDS011;3564;53.326;10.356;2024-03-07T12:40:24;19.80;;;12.27;;
7045;SDS011;3564;53.326;10.356;2024-03-07T12:42:54;18.07;;;11.90;;
7045;SDS011;3564;53.326;10.356;2024-03-07T12:45:20;18.43;;;12.50;;
7045;SDS011;3564;53.326;10.356;2024-03-07T12:47:47;17.40;;;12.93;;
7045;SDS011;3564;53.326;10.356;2024-03-07T12:50:16;18.83;;;12.17;;
7045;SDS011;3564;53.326;10.356;2024-03-07T12:52:45;16.40;;;12.20;;
7045;SDS011;3564;53.326;10.356;2024-03-07T12:55:15;21.50;;;13.57;;
7045;SDS011;3564;53.326;10.356;2024-03-07T12:57:46;19.30;;;12.33;;
7045;SDS011;3564;53.326;10.356;2024-03-07T13:00:15;19.13;;;12.63;;
7045;SDS011;3564;53.326;10.356;2024-03-07T13:02:48;20.67;;;13.27;;
7045;SDS011;3564;53.326;10.356;2024-03-07T13:05:15;18.63;;;12.17;;
7045;SDS011;3564;53.326;10.356;2024-03-07T13:07:47;20.17;;;12.40;;
7045;SDS011;3564;53.326;10.356;2024-03-07T13:10:13;18.17;;;12.40;;
7045;SDS011;3564;53.326;10.356;2024-03-07T13:12:41;22.07;;;13.93;;
7045;SDS011;3564;53.326;10.356;2024-03-07T13:15:10;16.47;;;12.20;;
7045;SDS011;3564;53.326;10.356;2024-03-07T13:17:36;18.30;;;13.70;;
7045;SDS011;3564;53.326;10.356;2024-03-07T13:20:02;19.27;;;13.10;;
7045;SDS011;3564;53.326;10.356;2024-03-07T13:22:36;19.80;;;12.40;;
7045;SDS011;3564;53.326;10.356;2024-03-07T13:25:20;19.63;;;12.57;;
7045;SDS011;3564;53.326;10.356;2024-03-07T13:28:03;18.00;;;11.30;;
7045;SDS011;3564;53.326;10.356;2024-03-07T13:30:42;25.43;;;13.43;;
7045;SDS011;3564;53.326;10.356;2024-03-07T13:33:09;19.70;;;12.70;;
7045;SDS011;3564;53.326;10.356;2024-03-07T13:35:37;19.37;;;11.97;;
7045;SDS011;3564;53.326;10.356;2024-03-07T13:38:06;18.23;;;12.20;;
7045;SDS011;3564;53.326;10.356;2024-03-07T13:40:33;17.07;;;12.30;;
7045;SDS011;3564;53.326;10.356;2024-03-07T13:43:06;16.83;;;12.00;;
7045;SDS011;3564;53.326;10.356;2024-03-07T13:45:36;17.37;;;12.47;;
7045;SDS011;3564;53.326;10.356;2024-03-07T13:48:06;16.20;;;11.70;;
7045;SDS011;3564;53.326;10.356;2024-03-07T13:50:42;18.53;;;12.03;;
7045;SDS011;3564;53.326;10.356;2024-03-07T13:53:13;17.07;;;11.70;;
7045;SDS011;3564;53.326;10.356;2024-03-07T13:55:52;19.20;;;11.10;;
7045;SDS011;3564;53.326;10.356;2024-03-07T14:06:50;17.47;;;11.53;;
7045;SDS011;3564;53.326;10.356;2024-03-07T14:09:14;16.90;;;11.27;;
7045;SDS011;3564;53.326;10.356;2024-03-07T14:15:57;15.67;;;9.87;;
7045;SDS011;3564;53.326;10.356;2024-03-07T14:22:02;18.53;;;10.40;;
7045;SDS011;3564;53.326;10.356;2024-03-07T14:27:32;17.13;;;11.23;;
7045;SDS011;3564;53.326;10.356;2024-03-07T14:33:09;17.10;;;11.03;;
7045;SDS011;3564;53.326;10.356;2024-03-07T14:38:25;15.83;;;11.20;;
7045;SDS011;3564;53.326;10.356;2024-03-07T14:41:13;16.27;;;10.77;;
7045;SDS011;3564;53.326;10.356;2024-03-07T14:43:40;17.03;;;11.20;;
7045;SDS011;3564;53.326;10.356;2024-03-07T14:46:06;18.23;;;10.13;;
7045;SDS011;3564;53.326;10.356;2024-03-07T14:48:34;16.67;;;11.13;;
7045;SDS011;3564;53.326;10.356;2024-03-07T14:51:01;15.67;;;10.60;;
7045;SDS011;3564;53.326;10.356;2024-03-07T14:53:28;20.57;;;10.90;;
7045;SDS011;3564;53.326;10.356;2024-03-07T14:55:53;14.83;;;10.50;;
7045;SDS011;3564;53.326;10.356;2024-03-07T14:58:21;19.10;;;12.23;;
7045;SDS011;3564;53.326;10.356;2024-03-07T15:00:47;15.13;;;10.70;;
7045;SDS011;3564;53.326;10.356;2024-03-07T15:03:15;17.07;;;11.23;;
7045;SDS011;3564;53.326;10.356;2024-03-07T15:05:47;17.03;;;9.90;;
7045;SDS011;3564;53.326;10.356;2024-03-07T15:08:13;14.10;;;10.60;;
7045;SDS011;3564;53.326;10.356;2024-03-07T15:10:41;15.20;;;11.30;;
7045;SDS011;3564;53.326;10.356;2024-03-07T15:13:12;14.23;;;10.50;;
7045;SDS011;3564;53.326;10.356;2024-03-07T15:15:38;17.37;;;11.73;;
7045;SDS011;3564;53.326;10.356;2024-03-07T15:18:05;20.00;;;11.33;;
7045;SDS011;3564;53.326;10.356;2024-03-07T15:20:31;31.93;;;17.17;;
7045;SDS011;3564;53.326;10.356;2024-03-07T15:22:57;32.53;;;19.33;;
7045;SDS011;3564;53.326;10.356;2024-03-07T15:25:24;20.87;;;13.20;;